Ana Sayfa
METAR-TAF:

METAR-TAF

Havaalanları :

Akron, Colorado, Amerika Birleşik Devletleri

Enlem: 40-10-28N, Boylam: 103-12-52W, yükseklik: 1431 m

Güncel hava durumu gözlemi

Rapor saat 15:53 UTC de 46 dakika önce yapıldı.
Rüzgar doğu/güneydoğudan 18 kt ve 26 kt'a kadar ani rüzgarlar
Sıcaklık 16°C
Nem 55%
Basınç 1026 hPa
Görüş mesafesi: 16.1 km
3400 ft yükseklikte az bulutlu
5000 ft yükseklikte parçalı bulutlu

METAR: KAKO 191553Z AUTO 11018G26KT 10SM FEW034 SCT050 16/07 A3029 RMK AO2 PK WND 11026/1549 SLP224 T01610072 $

Saat: 10:39 (16:39 UTC)


TAF: eksik

4.000'den fazla havaalanı için hava durumu gözlemleri ve tahminleri (METAR ve TAF raporları).

Kullanılabilir istasyonlar harita üzerinde sarı ve kırmızı noktalarla gösterilir.

İstasyonun adını görmek için fareyi noktanın üzerinde gezdirin.

Sonrasında hava gözlem ve tahminlerini görmek için tıklayın.

Haritayı değiştirmek için: yaklaştırmak için siyah artı işaretli yeşil düğmeye ve uzaklaştırmak için de eksi işaretli düğmeye hızla tıklayın; bitişik haritalar için yeşil okları kullanın.


METAR-TAF: